createdAt,value
2018-12-31T00:04:07.618Z,344.80
2018-12-31T00:09:12.704Z,346.30
2018-12-31T00:14:17.671Z,284.43
2018-12-31T00:19:22.647Z,259.13
2018-12-31T00:24:27.624Z,216.67
2018-12-31T00:29:32.594Z,214.67
2018-12-31T00:34:37.555Z,225.53
2018-12-31T00:39:42.518Z,231.40
2018-12-31T00:44:47.496Z,228.13
2018-12-31T00:49:52.557Z,213.53
2018-12-31T00:54:57.511Z,230.20
2018-12-31T01:00:02.483Z,244.00
2018-12-31T01:05:07.472Z,233.73
2018-12-31T01:10:12.739Z,267.53
2018-12-31T01:15:17.710Z,263.70
2018-12-31T01:20:22.797Z,305.50
2018-12-31T01:25:27.771Z,308.70
2018-12-31T01:30:32.727Z,270.40
2018-12-31T01:35:37.700Z,304.27
2018-12-31T01:40:42.669Z,317.33
2018-12-31T01:45:47.704Z,309.30
2018-12-31T01:50:52.680Z,277.90
2018-12-31T01:55:57.624Z,265.97
2018-12-31T02:01:02.587Z,286.73
2018-12-31T02:06:07.569Z,297.13
2018-12-31T02:11:12.539Z,284.63
2018-12-31T02:16:17.504Z,315.90
2018-12-31T02:21:22.466Z,287.60
2018-12-31T02:26:27.419Z,308.23
2018-12-31T02:31:32.401Z,282.53
2018-12-31T02:36:37.641Z,273.80
2018-12-31T02:41:42.617Z,254.53
2018-12-31T02:46:47.577Z,249.73
2018-12-31T02:51:52.536Z,242.10
2018-12-31T02:56:57.498Z,267.50
2018-12-31T03:02:02.469Z,291.47
2018-12-31T03:07:07.431Z,271.27
2018-12-31T03:12:12.394Z,294.00
2018-12-31T03:17:17.359Z,296.97
2018-12-31T03:22:22.319Z,290.50
2018-12-31T03:27:27.290Z,294.37
2018-12-31T03:32:32.258Z,307.07
2018-12-31T03:37:37.258Z,282.40
2018-12-31T03:42:42.228Z,274.20
2018-12-31T03:47:47.188Z,281.97
2018-12-31T03:52:52.150Z,283.43
2018-12-31T03:57:57.132Z,282.37
2018-12-31T04:03:02.091Z,292.70
2018-12-31T04:08:07.059Z,293.40
2018-12-31T04:13:12.042Z,280.50
2018-12-31T04:18:17.059Z,278.37
2018-12-31T04:23:22.024Z,282.43
2018-12-31T04:28:26.982Z,281.10
2018-12-31T04:33:31.954Z,297.47
2018-12-31T04:38:36.911Z,290.10
2018-12-31T04:43:41.891Z,298.97
2018-12-31T04:48:47.192Z,293.63
2018-12-31T04:53:52.175Z,287.90
2018-12-31T04:58:57.139Z,294.70
2018-12-31T05:04:02.118Z,299.47
2018-12-31T05:09:07.827Z,273.67
2018-12-31T05:14:12.811Z,272.40
2018-12-31T05:19:17.823Z,274.87
2018-12-31T05:24:22.798Z,249.23
2018-12-31T05:29:28.748Z,261.37
2018-12-31T05:34:33.720Z,266.53
2018-12-31T05:39:38.735Z,259.57
2018-12-31T05:44:43.692Z,263.77
2018-12-31T05:49:48.698Z,280.30
2018-12-31T05:54:53.655Z,257.83
2018-12-31T05:59:58.640Z,286.77
2018-12-31T06:05:03.611Z,264.20
2018-12-31T06:10:08.571Z,255.43
2018-12-31T06:15:13.546Z,277.07
2018-12-31T06:20:18.517Z,280.43
2018-12-31T06:25:23.499Z,267.23
2018-12-31T06:30:28.475Z,271.27
2018-12-31T06:35:33.442Z,265.17
2018-12-31T06:40:38.406Z,252.80
2018-12-31T06:45:43.367Z,265.17
2018-12-31T06:50:48.374Z,273.53
2018-12-31T06:55:53.483Z,281.00
2018-12-31T07:00:58.458Z,283.30
2018-12-31T07:06:03.425Z,266.00
2018-12-31T07:11:08.390Z,279.10
2018-12-31T07:16:13.351Z,287.73
2018-12-31T07:21:18.320Z,307.63
2018-12-31T07:26:23.297Z,296.10
2018-12-31T07:31:28.251Z,286.97
2018-12-31T07:36:33.240Z,256.40
2018-12-31T07:41:38.247Z,254.53
2018-12-31T07:46:43.219Z,270.80
2018-12-31T07:51:48.171Z,261.67
2018-12-31T07:56:53.134Z,273.67
2018-12-31T08:01:58.092Z,278.13
2018-12-31T08:07:03.155Z,272.57
2018-12-31T08:12:08.101Z,276.97
2018-12-31T08:17:13.067Z,257.87
2018-12-31T08:22:18.031Z,270.00
2018-12-31T08:27:22.994Z,263.83
2018-12-31T08:32:27.958Z,257.10
2018-12-31T08:37:32.971Z,267.30
2018-12-31T08:42:37.931Z,264.83
2018-12-31T08:47:42.916Z,292.93
2018-12-31T08:52:47.884Z,325.07
2018-12-31T08:57:52.855Z,275.00
2018-12-31T09:02:57.878Z,257.77
2018-12-31T09:08:02.843Z,239.17
2018-12-31T09:13:07.795Z,226.53
2018-12-31T09:18:14.556Z,219.73
2018-12-31T09:23:19.568Z,267.33
2018-12-31T09:28:24.535Z,250.00
2018-12-31T09:33:29.497Z,285.17
2018-12-31T09:38:34.477Z,374.47
2018-12-31T09:43:39.439Z,383.67
2018-12-31T09:48:44.416Z,352.80
2018-12-31T09:53:49.382Z,319.20
2018-12-31T09:58:54.345Z,339.97
2018-12-31T10:03:59.314Z,378.73
2018-12-31T10:09:05.931Z,383.73
2018-12-31T10:14:10.896Z,360.40
2018-12-31T10:19:15.863Z,353.30
2018-12-31T10:24:21.004Z,340.57
2018-12-31T10:29:25.966Z,329.03
2018-12-31T10:34:30.927Z,320.10
2018-12-31T10:39:36.360Z,336.10
2018-12-31T10:44:41.441Z,338.97
2018-12-31T10:49:46.402Z,337.00
2018-12-31T10:54:51.364Z,364.77
2018-12-31T10:59:56.339Z,236.13
2018-12-31T11:05:01.303Z,222.80
2018-12-31T11:10:06.952Z,163.97
2018-12-31T11:15:11.909Z,159.33
2018-12-31T11:20:16.919Z,139.73
2018-12-31T11:25:21.883Z,134.03
2018-12-31T11:30:26.851Z,133.33
2018-12-31T11:35:31.814Z,128.63
2018-12-31T11:40:36.798Z,140.20
2018-12-31T11:45:41.766Z,128.93
2018-12-31T11:50:46.731Z,115.27
2018-12-31T11:55:51.737Z,101.77
2018-12-31T12:00:56.735Z,73.23
2018-12-31T12:06:01.698Z,52.80
2018-12-31T12:11:06.661Z,54.60
2018-12-31T12:16:11.619Z,52.87
2018-12-31T12:21:16.576Z,46.20
2018-12-31T12:26:21.537Z,44.07
2018-12-31T12:31:26.746Z,61.40
2018-12-31T12:36:31.724Z,100.27
2018-12-31T12:41:36.667Z,78.83
2018-12-31T12:46:41.624Z,210.30
2018-12-31T12:51:46.586Z,388.93
2018-12-31T12:56:51.597Z,383.13
2018-12-31T13:01:56.560Z,456.07
2018-12-31T13:07:01.514Z,497.80
2018-12-31T13:12:06.486Z,463.90
2018-12-31T13:17:11.447Z,398.33
2018-12-31T13:22:16.420Z,419.73
2018-12-31T13:27:21.382Z,324.87
2018-12-31T13:32:26.356Z,376.57
2018-12-31T13:37:31.330Z,384.00
2018-12-31T13:42:36.360Z,370.70
2018-12-31T13:47:41.370Z,341.67
2018-12-31T13:52:46.322Z,369.63
2018-12-31T13:57:51.340Z,379.20
2018-12-31T14:02:56.291Z,360.63
2018-12-31T14:08:01.356Z,340.73
2018-12-31T14:13:06.339Z,325.63
2018-12-31T14:18:11.311Z,354.53
2018-12-31T14:23:16.296Z,308.47
2018-12-31T14:28:21.267Z,419.17
2018-12-31T14:33:26.232Z,378.60
2018-12-31T14:38:31.211Z,384.17
2018-12-31T14:43:36.195Z,334.50
2018-12-31T14:48:41.267Z,323.13
2018-12-31T14:53:46.227Z,318.70
2018-12-31T14:58:51.199Z,317.67
2018-12-31T15:03:56.167Z,413.40
2018-12-31T15:09:02.671Z,377.17
2018-12-31T15:14:07.923Z,378.07
2018-12-31T15:19:12.897Z,384.93
2018-12-31T15:24:17.862Z,320.93
2018-12-31T15:29:22.875Z,345.47
2018-12-31T15:34:27.843Z,341.90
2018-12-31T15:39:32.813Z,345.83
2018-12-31T15:44:37.766Z,346.37
2018-12-31T15:49:42.727Z,381.17
2018-12-31T15:54:47.698Z,377.63
2018-12-31T15:59:52.703Z,381.23
2018-12-31T16:04:57.683Z,365.60
2018-12-31T16:10:02.671Z,315.63
2018-12-31T16:15:09.302Z,392.70
2018-12-31T16:20:14.279Z,381.43
2018-12-31T16:25:19.247Z,384.23
2018-12-31T16:30:24.213Z,412.60
2018-12-31T16:35:29.215Z,416.83
2018-12-31T16:40:34.298Z,375.80
2018-12-31T16:45:39.334Z,401.70
2018-12-31T16:50:44.300Z,408.97
2018-12-31T16:55:49.279Z,357.60
2018-12-31T17:00:54.261Z,378.87
2018-12-31T17:05:59.229Z,381.47
2018-12-31T17:11:04.194Z,432.47
2018-12-31T17:16:09.228Z,440.37
2018-12-31T17:21:14.186Z,338.13
2018-12-31T17:26:19.143Z,398.73
2018-12-31T17:31:24.152Z,444.70
2018-12-31T17:36:29.121Z,411.87
2018-12-31T17:41:34.091Z,395.03
2018-12-31T17:46:41.233Z,421.27
2018-12-31T17:51:46.176Z,435.80
2018-12-31T17:56:51.247Z,454.57
2018-12-31T18:02:17.899Z,446.23
2018-12-31T18:07:47.164Z,464.50
2018-12-31T18:12:57.141Z,411.57
2018-12-31T18:18:13.980Z,340.43
2018-12-31T18:23:27.318Z,294.97
2018-12-31T18:28:37.056Z,194.73
2018-12-31T18:33:44.278Z,180.57
2018-12-31T18:39:07.055Z,176.33
2018-12-31T18:44:07.032Z,198.20
2018-12-31T18:49:19.624Z,160.57
2018-12-31T18:54:46.410Z,176.10
2018-12-31T18:59:59.184Z,172.40
2018-12-31T19:05:22.964Z,233.10
2018-12-31T19:10:36.485Z,228.67
2018-12-31T19:15:52.519Z,248.72
2018-12-31T19:27:15.466Z,282.67
2018-12-31T19:32:35.033Z,326.67
2018-12-31T19:38:01.755Z,288.47
2018-12-31T19:43:10.022Z,252.93
2018-12-31T19:48:19.130Z,257.23
2018-12-31T19:53:48.902Z,218.00
2018-12-31T19:58:56.460Z,234.67
2018-12-31T20:04:08.751Z,185.73
2018-12-31T20:09:17.862Z,190.57
2018-12-31T20:14:55.096Z,149.97
2018-12-31T20:20:00.152Z,99.57
2018-12-31T20:25:09.395Z,104.37
2018-12-31T20:30:17.817Z,101.73
2018-12-31T20:35:46.852Z,81.13
2018-12-31T20:41:15.662Z,85.33
2018-12-31T20:46:29.062Z,88.17
2018-12-31T20:51:37.813Z,58.60
2018-12-31T20:57:18.550Z,65.60
2018-12-31T21:02:28.558Z,134.43
2018-12-31T21:07:58.038Z,124.07
2018-12-31T21:18:44.474Z,410.33
2018-12-31T21:29:28.258Z,406.90
2018-12-31T21:34:57.010Z,360.67
2018-12-31T21:45:23.347Z,241.50
2018-12-31T21:50:35.049Z,201.50
2018-12-31T21:56:03.456Z,174.67
2018-12-31T22:01:32.484Z,149.13
2018-12-31T22:06:41.012Z,213.23
2018-12-31T22:11:50.668Z,319.73
2018-12-31T22:16:59.453Z,437.43
2018-12-31T22:33:18.339Z,414.67
2018-12-31T22:38:27.430Z,402.47
2018-12-31T22:48:54.207Z,353.50
2018-12-31T22:54:05.888Z,349.77
2018-12-31T22:59:13.423Z,337.03
2018-12-31T23:04:23.544Z,566.70
2018-12-31T23:09:41.191Z,408.90
2018-12-31T23:14:58.210Z,424.30
2018-12-31T23:20:10.171Z,351.20
2018-12-31T23:25:39.768Z,323.63
2018-12-31T23:31:07.917Z,258.87
2018-12-31T23:36:38.010Z,312.47
2018-12-31T23:47:04.632Z,265.93
2018-12-31T23:52:39.752Z,163.23
2018-12-31T23:57:47.893Z,146.53
